Time;durP1;ratioP1;P1;durP2;ratioP2;P2;SDS_P1;SDS_P2;PMS_P1;PMS_P2;Temp;Humidity;BMP_temperature;BMP_pressure;BME280_temperature;BME280_humidity;BME280_pressure;Samples;Min_cycle;Max_cycle;Signal;HPM_P1;HPM_P2
2022/08/04 00:00:26;;;;;;;7.43;3.25;;;;;;;22.87;100.00;101271.38;5053933;28;20553;-70
2022/08/04 00:03:27;;;;;;;11.15;2.13;;;;;;;22.80;100.00;101258.16;5076351;28;20120;-70
2022/08/04 00:06:04;;;;;;;5.32;2.08;;;;;;;22.73;100.00;101252.09;5067417;28;20031;-70
2022/08/04 00:08:29;;;;;;;10.07;2.72;;;;;;;22.67;100.00;101261.19;5077079;28;20493;-71
2022/08/04 00:10:58;;;;;;;4.75;1.92;;;;;;;22.68;100.00;101259.38;5073082;28;20064;-71
2022/08/04 00:13:26;;;;;;;6.47;2.17;;;;;;;22.75;100.00;101258.31;5070013;28;20523;-71
2022/08/04 00:15:57;;;;;;;4.97;2.42;;;;;;;22.81;100.00;101255.44;5074635;28;20380;-71
2022/08/04 00:18:28;;;;;;;8.35;2.42;;;;;;;22.76;100.00;101252.00;5058166;28;20064;-70
2022/08/04 00:20:59;;;;;;;4.88;2.25;;;;;;;22.68;100.00;101252.22;5073767;28;20104;-69
2022/08/04 00:23:26;;;;;;;7.70;2.60;;;;;;;22.63;100.00;101251.47;5073709;28;20103;-70
2022/08/04 00:25:52;;;;;;;7.88;2.38;;;;;;;22.63;100.00;101251.47;5074323;28;20044;-70
2022/08/04 00:28:19;;;;;;;8.27;2.30;;;;;;;22.64;100.00;101244.28;5072695;28;20024;-70
2022/08/04 00:30:45;;;;;;;4.35;2.10;;;;;;;22.76;100.00;101248.44;5069896;28;20052;-70
2022/08/04 00:33:10;;;;;;;4.88;2.25;;;;;;;22.73;100.00;101247.63;5070804;28;20107;-70
2022/08/04 00:35:37;;;;;;;5.65;1.80;;;;;;;22.74;100.00;101243.13;5072846;28;20114;-70
2022/08/04 00:38:03;;;;;;;10.60;4.07;;;;;;;22.73;100.00;101241.34;5070848;28;20029;-70
2022/08/04 00:40:41;;;;;;;4.53;2.15;;;;;;;22.60;100.00;101243.53;5066778;28;20043;-70
2022/08/04 00:43:18;;;;;;;8.95;2.75;;;;;;;22.54;100.00;101243.66;5076498;28;20024;-71
2022/08/04 00:45:53;;;;;;;2.85;1.92;;;;;;;22.42;100.00;101242.19;5076431;28;20105;-71
2022/08/04 00:48:30;;;;;;;4.20;2.10;;;;;;;22.41;100.00;101243.13;5073386;28;20034;-69
2022/08/04 00:51:19;;;;;;;5.60;2.45;;;;;;;22.47;100.00;101242.09;5065355;28;20076;-69
2022/08/04 00:54:15;;;;;;;3.83;1.90;;;;;;;22.44;100.00;101243.03;5087460;28;20094;-71
2022/08/04 00:57:10;;;;;;;7.90;1.92;;;;;;;22.49;100.00;101241.13;5057169;28;20112;-70
2022/08/04 01:00:01;;;;;;;7.07;1.90;;;;;;;22.46;100.00;101235.81;5067645;28;20025;-70
2022/08/04 01:02:55;;;;;;;5.93;2.03;;;;;;;22.44;100.00;101235.00;5073287;28;20096;-70
2022/08/04 01:05:28;;;;;;;;;;;;;;;22.41;100.00;101237.78;5070073;28;20027;-70
2022/08/04 01:08:07;;;;;;;7.18;2.60;;;;;;;22.44;100.00;101235.00;5056922;28;20275;-71
2022/08/04 01:11:10;;;;;;;9.68;2.78;;;;;;;22.49;100.00;101234.88;5067907;28;20388;-70
2022/08/04 01:13:44;;;;;;;5.05;2.50;;;;;;;22.50;100.00;101233.94;5069032;28;20100;-70
2022/08/04 01:16:16;;;;;;;6.10;2.25;;;;;;;22.55;100.00;101230.22;5059429;28;20396;-70
2022/08/04 01:19:01;;;;;;;4.18;2.40;;;;;;;22.52;100.00;101237.50;5073478;28;20027;-69
2022/08/04 01:21:41;;;;;;;7.55;2.92;;;;;;;22.46;100.00;101237.63;5057440;28;20469;-69
2022/08/04 01:24:12;;;;;;;8.02;2.30;;;;;;;22.44;100.00;101235.00;5066324;28;20032;-70
2022/08/04 01:27:08;;;;;;;7.78;2.55;;;;;;;22.44;100.00;101235.00;5068036;28;20110;-70
2022/08/04 01:29:39;;;;;;;8.07;3.00;;;;;;;22.39;100.00;101229.75;5064437;28;20473;-70
2022/08/04 01:32:16;;;;;;;6.90;2.75;;;;;;;22.38;100.00;101233.38;5065320;28;20130;-70
2022/08/04 01:34:49;;;;;;;7.07;3.10;;;;;;;22.27;100.00;101226.47;5061046;28;20028;-69
2022/08/04 01:37:33;;;;;;;6.25;2.42;;;;;;;22.18;100.00;101223.13;5061350;28;20422;-70
2022/08/04 01:40:03;;;;;;;6.15;2.60;;;;;;;22.11;100.00;101216.16;5089410;28;20037;-70
2022/08/04 01:42:32;;;;;;;4.95;2.75;;;;;;;22.05;100.00;101213.63;5066615;28;20024;-71
2022/08/04 01:45:01;;;;;;;10.98;2.58;;;;;;;22.02;100.00;101213.72;5062658;28;20025;-70
2022/08/04 01:47:28;;;;;;;7.90;3.17;;;;;;;21.99;100.00;101212.00;5073402;28;20085;-71
2022/08/04 01:50:04;;;;;;;4.53;2.60;;;;;;;21.87;100.00;101223.88;5065791;28;20032;-70
2022/08/04 01:52:31;;;;;;;7.72;2.90;;;;;;;21.85;100.00;101214.13;5074938;28;20119;-69
2022/08/04 01:54:57;;;;;;;4.85;2.40;;;;;;;21.83;100.00;101216.84;5062006;28;20480;-69
2022/08/04 01:57:24;;;;;;;7.32;2.83;;;;;;;21.79;100.00;101209.81;5061373;28;20155;-69
2022/08/04 01:59:51;;;;;;;2.95;2.20;;;;;;;21.76;100.00;101212.56;5075406;28;20036;-70
2022/08/04 02:02:17;;;;;;;3.97;2.10;;;;;;;21.75;100.00;101200.09;5061571;28;20365;-69
2022/08/04 02:04:42;;;;;;;6.95;3.42;;;;;;;21.73;100.00;101210.84;5060278;28;20020;-70
2022/08/04 02:07:29;;;;;;;8.02;2.55;;;;;;;21.71;100.00;101207.31;5066040;28;20062;-69
2022/08/04 02:10:10;;;;;;;5.20;2.72;;;;;;;21.65;100.00;101211.91;5078396;28;20027;-71
2022/08/04 02:12:43;;;;;;;7.40;2.72;;;;;;;21.69;100.00;101209.16;5060267;28;20506;-70
2022/08/04 02:15:23;;;;;;;8.00;3.42;;;;;;;21.73;100.00;101204.59;5060911;28;20360;-71
2022/08/04 02:17:55;;;;;;;6.57;2.90;;;;;;;21.68;100.00;101201.16;5088139;28;20086;-69
2022/08/04 02:20:30;;;;;;;6.30;2.97;;;;;;;21.64;100.00;101197.66;5066357;28;20059;-70
2022/08/04 02:23:02;;;;;;;5.85;2.60;;;;;;;21.66;100.00;101187.81;5067868;28;20035;-70
2022/08/04 02:25:33;;;;;;;4.80;2.53;;;;;;;21.68;100.00;101193.13;5069358;28;20492;-70
2022/08/04 02:28:22;;;;;;;7.95;2.92;;;;;;;21.68;100.00;101195.81;5064612;28;20029;-70
2022/08/04 02:30:56;;;;;;;7.32;2.58;;;;;;;21.62;100.00;101185.22;5071512;28;20028;-70
2022/08/04 02:33:26;;;;;;;5.57;2.70;;;;;;;21.56;100.00;101197.84;5060882;28;20032;-70
2022/08/04 02:35:56;;;;;;;11.10;3.78;;;;;;;21.47;100.00;101189.97;5071864;28;20035;-71
2022/08/04 02:38:53;;;;;;;5.82;2.55;;;;;;;21.50;100.00;101186.34;5078091;28;20024;-70
2022/08/04 02:41:22;;;;;;;7.13;2.83;;;;;;;21.44;100.00;101176.69;5056075;28;20029;-70
2022/08/04 02:43:48;;;;;;;6.30;3.00;;;;;;;21.42;100.00;101181.19;5072147;28;20094;-70
2022/08/04 02:46:17;;;;;;;8.38;3.13;;;;;;;21.46;100.00;101180.22;5066414;28;20025;-70
2022/08/04 02:48:45;;;;;;;4.38;2.72;;;;;;;21.46;100.00;101188.25;5063430;28;20028;-69
2022/08/04 02:51:14;;;;;;;7.93;3.30;;;;;;;21.49;100.00;101188.16;5063460;28;20029;-71
2022/08/04 02:53:40;;;;;;;10.63;3.00;;;;;;;21.45;100.00;101189.16;5068984;28;20044;-69
2022/08/04 02:56:08;;;;;;;4.88;2.50;;;;;;;21.39;100.00;101183.94;5079638;28;20494;-70
2022/08/04 02:58:36;;;;;;;5.72;2.40;;;;;;;21.40;100.00;101185.69;5073675;28;20046;-70
2022/08/04 03:01:02;;;;;;;8.38;2.92;;;;;;;21.39;100.00;101183.94;5060315;28;20337;-70
2022/08/04 03:03:50;;;;;;;7.85;3.10;;;;;;;21.39;100.00;101182.16;5071265;28;20032;-70
2022/08/04 03:06:31;;;;;;;7.88;3.35;;;;;;;21.36;100.00;101182.19;5065818;28;20052;-71
2022/08/04 03:09:08;;;;;;;6.22;3.00;;;;;;;21.35;100.00;101187.59;5057583;28;20488;-70
2022/08/04 03:12:10;;;;;;;5.35;2.80;;;;;;;21.33;100.00;101187.63;5054405;28;20021;-69
2022/08/04 03:14:44;;;;;;;7.55;2.85;;;;;;;21.27;100.00;101184.22;5055082;28;20040;-71
2022/08/04 03:17:20;;;;;;;5.55;2.92;;;;;;;21.24;100.00;101185.16;5059186;28;20155;-69
2022/08/04 03:19:58;;;;;;;11.32;3.10;;;;;;;21.22;100.00;101187.88;5069077;28;20024;-70
2022/08/04 03:22:47;;;;;;;5.63;2.90;;;;;;;21.17;100.00;101179.06;5064576;28;20062;-69
2022/08/04 03:25:31;;;;;;;9.77;2.58;;;;;;;21.12;100.00;101174.72;5084418;28;20060;-70
2022/08/04 03:28:34;;;;;;;5.82;2.80;;;;;;;21.10;100.00;101171.22;5061260;28;20430;-69
2022/08/04 03:31:37;;;;;;;6.53;3.00;;;;;;;21.10;100.00;101174.78;5076794;28;20021;-70
2022/08/04 03:34:23;;;;;;;5.65;2.80;;;;;;;21.06;100.00;101170.41;5065260;28;20380;-69
2022/08/04 03:37:03;;;;;;;6.72;2.58;;;;;;;21.04;100.00;101166.91;5057268;28;20040;-70
2022/08/04 03:39:44;;;;;;;5.72;2.58;;;;;;;21.02;100.00;101172.25;5064113;28;20120;-70
2022/08/04 03:42:18;;;;;;;7.50;2.58;;;;;;;21.02;100.00;101169.56;5072338;28;20349;-70
2022/08/04 03:44:57;;;;;;;4.82;2.40;;;;;;;21.01;100.00;101177.63;5054119;28;20029;-70
2022/08/04 03:47:44;;;;;;;10.57;2.97;;;;;;;20.99;100.00;101168.78;5056886;28;20108;-69
2022/08/04 03:50:42;;;;;;;4.05;2.70;;;;;;;20.98;100.00;101172.38;5059050;28;20044;-70
2022/08/04 03:53:20;;;;;;;4.85;2.50;;;;;;;21.00;100.00;101175.91;5064829;28;20055;-70
2022/08/04 03:56:23;;;;;;;5.60;2.67;;;;;;;20.99;100.00;101168.78;5064875;28;20465;-70
2022/08/04 03:59:15;;;;;;;8.98;2.88;;;;;;;20.99;100.00;101164.28;5064706;28;20040;-70
2022/08/04 04:01:59;;;;;;;6.32;2.83;;;;;;;21.02;100.00;101158.88;5068138;28;20024;-71
2022/08/04 04:05:14;;;;;;;10.02;2.63;;;;;;;20.99;100.00;101158.94;5061417;28;20059;-71
2022/08/04 04:08:09;;;;;;;5.03;2.30;;;;;;;21.02;100.00;101168.69;5041862;28;20041;-71
2022/08/04 04:10:58;;;;;;;12.77;5.38;;;;;;;21.00;100.00;101163.38;5067483;28;20048;-71
2022/08/04 04:13:41;;;;;;;13.80;4.53;;;;;;;20.99;100.00;101155.41;5061330;28;20032;-70
2022/08/04 04:16:19;;;;;;;8.25;3.15;;;;;;;21.03;100.00;101159.78;5060581;28;20024;-70
2022/08/04 04:19:13;;;;;;;7.03;2.70;;;;;;;21.00;100.00;101165.19;5068066;28;20532;-70
2022/08/04 04:21:38;;;;;;;;;;;;;;;20.98;100.00;101164.34;5053322;28;20101;-69
2022/08/04 04:24:18;;;;;;;6.57;2.37;;;;;;;21.02;100.00;101166.03;5071200;28;19970;-69
2022/08/04 04:27:01;;;;;;;5.35;2.53;;;;;;;21.03;100.00;101173.16;5067551;28;20085;-70
2022/08/04 04:29:35;;;;;;;7.45;2.30;;;;;;;21.05;100.00;101171.31;5064433;28;20032;-70
2022/08/04 04:32:13;;;;;;;9.73;2.80;;;;;;;21.08;100.00;101171.25;5066942;28;20035;-68
2022/08/04 04:34:57;;;;;;;6.22;2.65;;;;;;;21.08;100.00;101173.94;5059884;28;20029;-69
2022/08/04 04:37:31;;;;;;;6.38;2.50;;;;;;;21.10;100.00;101188.16;5063307;28;20037;-71
2022/08/04 04:40:16;;;;;;;10.02;2.80;;;;;;;21.11;100.00;101163.16;5070354;28;20106;-70
2022/08/04 04:43:00;;;;;;;7.97;2.60;;;;;;;21.14;100.00;101163.06;5065109;28;20040;-71
2022/08/04 04:45:33;;;;;;;8.85;2.20;;;;;;;21.18;100.00;101167.44;5057498;28;20167;-70
2022/08/04 04:48:15;;;;;;;9.63;2.47;;;;;;;21.22;100.00;101162.91;5055791;28;20025;-70
2022/08/04 04:51:18;;;;;;;5.68;2.13;;;;;;;21.19;100.00;101166.53;5060557;28;20025;-70
2022/08/04 04:53:52;;;;;;;8.10;2.42;;;;;;;21.21;100.00;101169.19;5066572;28;20123;-70
2022/08/04 04:56:27;;;;;;;10.60;2.63;;;;;;;21.23;100.00;101168.22;5067002;28;20472;-70
2022/08/04 04:58:55;;;;;;;11.40;2.40;;;;;;;21.27;100.00;101170.81;5058782;28;20028;-70
2022/08/04 05:01:36;;;;;;;7.57;2.55;;;;;;;21.28;100.00;101169.91;5054795;28;20041;-70
2022/08/04 05:04:20;;;;;;;5.30;2.30;;;;;;;21.30;100.00;101178.81;5070905;28;20024;-70
2022/08/04 05:07:08;;;;;;;5.20;2.15;;;;;;;21.30;100.00;101178.81;5067632;28;20029;-71
2022/08/04 05:10:11;;;;;;;7.85;2.22;;;;;;;21.32;100.00;101179.63;5070374;28;20426;-70
2022/08/04 05:13:04;;;;;;;5.88;2.20;;;;;;;21.34;100.00;101188.53;5057475;28;20021;-69
2022/08/04 05:15:34;;;;;;;5.00;2.13;;;;;;;21.35;100.00;101192.94;5072932;28;20025;-70
2022/08/04 05:18:02;;;;;;;9.98;2.40;;;;;;;21.33;100.00;101190.31;5072081;28;20027;-70
2022/08/04 05:20:40;;;;;;;7.45;2.10;;;;;;;21.30;100.00;101185.03;5075924;28;20020;-71
2022/08/04 05:23:18;;;;;;;5.05;2.20;;;;;;;21.29;100.00;101177.03;5062773;28;20028;-70
2022/08/04 05:25:52;;;;;;;8.10;1.90;;;;;;;21.28;100.00;101177.94;5068834;28;20027;-70
2022/08/04 05:28:23;;;;;;;7.70;2.33;;;;;;;21.27;100.00;101185.13;5056775;28;20063;-71
2022/08/04 05:30:52;;;;;;;6.32;2.20;;;;;;;21.29;100.00;101193.09;5066363;28;20472;-72
2022/08/04 05:33:24;;;;;;;8.52;2.10;;;;;;;21.29;100.00;101193.97;5074779;28;20557;-73
2022/08/04 05:35:55;;;;;;;9.00;2.72;;;;;;;21.27;100.00;101201.16;5070082;28;20033;-73
2022/08/04 05:38:24;;;;;;;4.85;2.15;;;;;;;21.27;100.00;101210.97;5077354;28;20037;-72
2022/08/04 05:40:51;;;;;;;9.55;2.72;;;;;;;21.24;100.00;101206.56;5061652;28;20078;-71
2022/08/04 05:43:18;;;;;;;8.85;2.30;;;;;;;21.22;100.00;101213.78;5059962;28;20537;-71
2022/08/04 05:45:47;;;;;;;8.38;2.10;;;;;;;21.22;100.00;101220.00;5067402;28;20062;-71
2022/08/04 05:48:13;;;;;;;5.85;2.00;;;;;;;21.17;100.00;101208.50;5064009;28;20055;-71
2022/08/04 05:50:39;;;;;;;17.25;2.58;;;;;;;21.09;100.00;101199.75;5062479;28;20037;-71
2022/08/04 05:53:06;;;;;;;6.28;2.22;;;;;;;21.09;100.00;101207.78;5055886;28;20449;-72
2022/08/04 05:55:33;;;;;;;4.43;1.90;;;;;;;21.09;100.00;101207.78;5093560;28;20457;-72
2022/08/04 05:58:00;;;;;;;13.68;3.40;;;;;;;21.10;100.00;101204.19;5062503;28;20051;-71
2022/08/04 06:00:27;;;;;;;11.40;2.65;;;;;;;21.10;100.00;101204.19;5062333;28;20032;-72
2022/08/04 06:02:55;;;;;;;5.68;2.45;;;;;;;21.12;100.00;101193.47;5067285;28;20107;-71
2022/08/04 06:05:21;;;;;;;10.13;2.70;;;;;;;21.09;100.00;101213.13;5062106;28;20025;-70
2022/08/04 06:07:47;;;;;;;11.05;2.42;;;;;;;21.11;100.00;101210.47;5069026;28;20041;-70
2022/08/04 06:10:13;;;;;;;7.80;2.88;;;;;;;21.11;100.00;101202.44;5073823;28;20412;-72
2022/08/04 06:12:48;;;;;;;7.38;2.53;;;;;;;21.12;100.00;101207.75;5063520;28;20475;-72
2022/08/04 06:15:17;;;;;;;8.13;2.40;;;;;;;21.14;100.00;101200.53;5064288;28;20488;-72
2022/08/04 06:17:48;;;;;;;6.60;2.67;;;;;;;21.14;100.00;101205.91;5071929;28;20116;-70
2022/08/04 06:20:16;;;;;;;9.73;2.60;;;;;;;21.15;100.00;101213.03;5070097;28;20036;-72
2022/08/04 06:22:43;;;;;;;13.65;2.88;;;;;;;21.19;100.00;101209.34;5068569;28;20099;-73
2022/08/04 06:25:12;;;;;;;7.38;2.80;;;;;;;21.23;100.00;101216.41;5069528;28;20025;-71
2022/08/04 06:27:39;;;;;;;9.40;2.42;;;;;;;21.28;100.00;101220.78;5069880;28;20024;-71
2022/08/04 06:30:09;;;;;;;10.63;2.70;;;;;;;21.26;100.00;101222.63;5068239;28;20048;-72
2022/08/04 06:32:37;;;;;;;10.90;2.83;;;;;;;21.25;100.00;101204.78;5065582;28;20087;-72
2022/08/04 06:35:06;;;;;;;10.73;2.47;;;;;;;21.32;100.00;101207.28;5072479;28;20078;-72
2022/08/04 06:37:35;;;;;;;8.48;2.47;;;;;;;21.38;100.00;101204.47;5075693;28;20379;-72
2022/08/04 06:40:02;;;;;;;6.78;2.10;;;;;;;21.47;100.00;101208.72;5069189;28;20024;-72
2022/08/04 06:42:28;;;;;;;8.23;2.42;;;;;;;21.56;100.00;101213.91;5072769;28;20392;-72
2022/08/04 06:44:57;;;;;;;4.80;2.03;;;;;;;21.69;100.00;101213.63;5071752;28;20103;-72
2022/08/04 06:47:23;;;;;;;11.45;3.08;;;;;;;21.76;100.00;101223.28;5071836;28;20095;-70
2022/08/04 06:49:52;;;;;;;8.25;2.58;;;;;;;21.81;100.00;101218.69;5063289;28;20034;-71
2022/08/04 06:52:19;;;;;;;11.95;2.97;;;;;;;21.86;100.00;101223.94;5068152;28;20545;-71
2022/08/04 06:54:45;;;;;;;10.82;2.80;;;;;;;21.92;100.00;101220.22;5064833;28;20059;-71
2022/08/04 06:57:15;;;;;;;7.95;2.67;;;;;;;21.89;100.00;101230.09;5069044;28;20025;-71
2022/08/04 06:59:49;;;;;;;8.23;1.80;;;;;;;21.97;100.00;101229.03;5078891;28;20024;-72
2022/08/04 07:02:19;;;;;;;4.50;1.60;;;;;;;22.03;100.00;101228.84;5070934;28;20024;-72
2022/08/04 07:04:45;;;;;;;10.15;2.17;;;;;;;22.02;100.00;101230.66;5077286;28;20058;-70
2022/08/04 07:07:11;;;;;;;8.00;1.85;;;;;;;22.03;100.00;101219.03;5074064;28;20033;-71
2022/08/04 07:09:38;;;;;;;5.03;1.80;;;;;;;22.12;100.00;101227.75;5072388;28;20020;-71
2022/08/04 07:12:06;;;;;;;8.88;1.80;;;;;;;22.19;100.00;101229.34;5072456;28;20392;-72
2022/08/04 07:14:34;;;;;;;6.65;1.95;;;;;;;22.24;100.00;101233.66;5073020;28;20583;-72
2022/08/04 07:17:05;;;;;;;6.72;1.77;;;;;;;22.31;100.00;101233.53;5070860;28;20031;-72
2022/08/04 07:19:34;;;;;;;7.55;1.83;;;;;;;22.37;100.00;101228.06;5067482;28;20510;-72
2022/08/04 07:22:00;;;;;;;5.82;1.88;;;;;;;22.40;100.00;101241.38;5063351;28;20143;-71
2022/08/04 07:24:33;;;;;;;4.80;1.42;;;;;;;22.45;100.00;101244.81;5072119;28;20036;-72
2022/08/04 07:26:59;;;;;;;7.75;1.95;;;;;;;22.37;100.00;101255.72;5071887;28;20071;-71
2022/08/04 07:29:25;;;;;;;7.00;1.80;;;;;;;22.44;100.00;101256.44;5071825;28;20028;-71
2022/08/04 07:31:53;;;;;;;8.93;2.63;;;;;;;22.47;100.00;101253.69;5067656;28;20041;-71
2022/08/04 07:34:19;;;;;;;4.13;1.88;;;;;;;22.50;100.00;101269.69;5066936;28;20471;-72
2022/08/04 07:36:45;;;;;;;9.02;1.83;;;;;;;22.53;100.00;101266.94;5062622;28;20114;-75
2022/08/04 07:39:12;;;;;;;5.85;1.58;;;;;;;22.61;100.00;101263.16;5073792;28;20052;-73
2022/08/04 07:41:38;;;;;;;4.30;1.55;;;;;;;22.68;100.00;101272.78;5085601;28;20104;-72
2022/08/04 07:44:04;;;;;;;4.32;1.73;;;;;;;22.73;100.00;101268.19;5080465;28;20054;-73
2022/08/04 07:46:29;;;;;;;4.88;1.70;;;;;;;22.69;100.00;101271.88;5071560;28;20107;-73
2022/08/04 07:48:55;;;;;;;7.47;1.52;;;;;;;22.76;100.00;101277.97;5070095;28;20447;-72
2022/08/04 07:51:21;;;;;;;9.35;1.70;;;;;;;22.72;100.00;101272.69;5077541;28;20032;-71
2022/08/04 07:53:47;;;;;;;5.65;2.22;;;;;;;22.72;100.00;101275.38;5088131;28;20047;-72
2022/08/04 07:56:15;;;;;;;3.67;1.85;;;;;;;22.74;100.00;101276.19;5074279;28;20685;-72
2022/08/04 07:58:40;;;;;;;6.57;1.70;;;;;;;22.70;100.00;101274.50;5073900;28;20055;-72
2022/08/04 08:01:08;;;;;;;3.60;1.30;;;;;;;22.72;100.00;101282.53;5069869;28;20032;-70
2022/08/04 08:03:34;;;;;;;3.03;1.48;;;;;;;22.84;100.00;101279.53;5069170;28;20031;-72
2022/08/04 08:06:00;;;;;;;4.65;1.50;;;;;;;22.81;100.00;101284.94;5068134;28;20506;-71
2022/08/04 08:08:25;;;;;;;6.40;1.83;;;;;;;22.85;100.00;101286.63;5065820;28;20029;-72
2022/08/04 08:10:52;;;;;;;6.32;1.63;;;;;;;22.97;100.00;101288.09;5078708;28;20036;-71
2022/08/04 08:13:18;;;;;;;4.65;1.75;;;;;;;23.08;100.00;101287.78;5082763;28;20035;-70
2022/08/04 08:15:45;;;;;;;7.32;1.70;;;;;;;23.19;100.00;101285.69;5081681;28;20126;-70
2022/08/04 08:18:11;;;;;;;7.47;2.00;;;;;;;23.37;100.00;101283.41;5072301;28;20472;-71
2022/08/04 08:20:36;;;;;;;5.55;1.48;;;;;;;23.40;100.00;101284.19;5077256;28;20098;-71
2022/08/04 08:23:02;;;;;;;4.22;1.70;;;;;;;23.54;100.00;101291.84;5072470;28;20094;-71
2022/08/04 08:25:30;;;;;;;5.75;1.92;;;;;;;23.61;100.00;101284.47;5080029;28;20027;-71
2022/08/04 08:27:56;;;;;;;2.78;1.70;;;;;;;23.70;100.00;101288.69;5067848;28;20357;-71
2022/08/04 08:30:22;;;;;;;4.45;1.65;;;;;;;23.84;100.00;101283.75;5070370;28;20043;-69
2022/08/04 08:32:48;;;;;;;10.15;1.60;;;;;;;23.83;100.00;101284.66;5072684;28;20031;-71
2022/08/04 08:35:13;;;;;;;3.13;1.45;;;;;;;23.90;100.00;101283.59;5089916;28;20032;-70
2022/08/04 08:38:02;;;;;;;7.85;1.90;;;;;;;23.93;100.00;101282.63;5072983;28;20055;-71
2022/08/04 08:40:52;;;;;;;2.80;1.20;;;;;;;23.97;100.00;101275.31;5081585;28;20041;-69
2022/08/04 08:43:51;;;;;;;6.50;1.40;;;;;;;24.08;100.00;101278.53;5093810;28;20484;-71
2022/08/04 08:46:29;;;;;;;3.17;1.38;;;;;;;24.28;100.00;101282.38;5095131;28;20031;-70
2022/08/04 08:49:29;;;;;;;3.05;1.33;;;;;;;24.57;100.00;101287.63;5082517;28;20609;-70
2022/08/04 08:52:07;;;;;;;3.25;1.77;;;;;;;24.81;100.00;101290.44;5075908;28;20055;-71
2022/08/04 08:55:16;;;;;;;6.47;1.70;;;;;;;25.14;100.00;101294.63;5079345;28;20052;-70
2022/08/04 08:57:57;;;;;;;5.07;1.48;;;;;;;25.34;100.00;101288.50;5071789;28;20106;-70
2022/08/04 09:00:39;;;;;;;3.78;1.42;;;;;;;25.51;100.00;101291.44;5084430;28;20074;-70
2022/08/04 09:03:37;;;;;;;6.55;1.60;;;;;;;25.46;100.00;101288.06;5082262;28;20029;-70
2022/08/04 09:06:05;;;;;;;7.93;1.60;;;;;;;25.43;96.65;101293.53;5086353;28;20439;-71
2022/08/04 09:08:48;;;;;;;2.63;1.10;;;;;;;25.35;96.56;101292.97;5078494;28;20514;-70
2022/08/04 09:11:23;;;;;;;2.00;1.10;;;;;;;25.38;94.47;101285.66;5081316;28;20036;-70
2022/08/04 09:14:19;;;;;;;2.03;1.25;;;;;;;25.62;97.46;101300.91;5076346;28;20028;-70
2022/08/04 09:17:01;;;;;;;4.50;1.55;;;;;;;25.79;96.68;101306.53;5080281;28;20173;-71
2022/08/04 09:19:35;;;;;;;7.27;1.60;;;;;;;25.78;95.81;101304.75;5078844;28;20033;-71
2022/08/04 09:22:10;;;;;;;5.22;1.67;;;;;;;25.82;92.34;101313.63;5079141;28;20547;-70
2022/08/04 09:24:49;;;;;;;4.13;1.10;;;;;;;25.78;93.61;101315.53;5085116;28;20484;-70
2022/08/04 09:27:23;;;;;;;10.32;1.30;;;;;;;25.68;96.65;101317.72;5090076;28;20123;-71
2022/08/04 09:30:02;;;;;;;4.75;1.15;;;;;;;25.63;95.07;101316.16;5092053;28;20035;-70
2022/08/04 09:32:37;;;;;;;5.57;1.20;;;;;;;25.49;91.63;101314.88;5075868;28;20122;-70
2022/08/04 09:35:36;;;;;;;3.63;1.20;;;;;;;25.46;91.86;101315.00;5093907;28;20028;-71
2022/08/04 09:38:27;;;;;;;3.67;1.40;;;;;;;25.39;92.28;101324.22;5083505;28;20043;-72
2022/08/04 09:41:24;;;;;;;4.65;1.30;;;;;;;25.38;92.66;101338.63;5074410;28;20125;-72
2022/08/04 09:44:09;;;;;;;4.93;1.08;;;;;;;25.28;92.42;101343.47;5081115;28;20135;-73
2022/08/04 09:46:50;;;;;;;4.05;1.20;;;;;;;25.12;90.64;101336.88;5071518;28;20028;-72
2022/08/04 09:49:23;;;;;;;7.10;1.70;;;;;;;25.07;92.55;101339.75;5075052;28;20104;-73
2022/08/04 09:51:57;;;;;;;3.08;1.20;;;;;;;24.91;92.01;101344.81;5077520;28;20048;-72
2022/08/04 09:54:27;;;;;;;4.07;1.40;;;;;;;24.76;91.82;101338.16;5073421;28;20115;-72
2022/08/04 09:57:03;;;;;;;2.60;1.17;;;;;;;24.75;92.60;101339.06;5069875;28;20029;-71
2022/08/04 09:59:52;;;;;;;4.30;1.35;;;;;;;24.74;90.66;101353.47;5075858;28;20024;-73
2022/08/04 10:02:20;;;;;;;3.40;1.00;;;;;;;24.65;90.02;101353.78;5069102;28;20033;-73
2022/08/04 10:04:48;;;;;;;1.80;1.00;;;;;;;24.56;87.00;101352.25;5068345;28;20027;-72
2022/08/04 10:07:44;;;;;;;3.97;1.10;;;;;;;24.61;88.47;101365.53;5085730;28;20383;-73
2022/08/04 10:10:33;;;;;;;5.20;1.33;;;;;;;24.68;88.47;101359.94;5078591;28;20464;-72
2022/08/04 10:13:11;;;;;;;5.80;1.20;;;;;;;24.74;87.01;101348.97;5084064;28;20024;-73
2022/08/04 10:15:53;;;;;;;2.05;1.05;;;;;;;24.78;84.01;101355.09;5087655;28;20418;-73
2022/08/04 10:18:38;;;;;;;2.63;0.98;;;;;;;24.80;84.67;101357.75;5073525;28;20051;-72
2022/08/04 10:21:17;;;;;;;3.30;1.10;;;;;;;24.95;83.89;101364.44;5063319;28;20035;-72
2022/08/04 10:23:57;;;;;;;3.30;1.02;;;;;;;24.94;77.39;101359.97;5077703;28;20024;-72
2022/08/04 10:26:41;;;;;;;3.50;1.25;;;;;;;25.06;78.40;101370.31;5083709;28;20468;-72
2022/08/04 10:29:26;;;;;;;3.15;1.25;;;;;;;25.17;76.08;101368.09;5063654;28;20024;-73
2022/08/04 10:32:16;;;;;;;2.95;1.33;;;;;;;25.22;80.18;101374.19;5062304;28;20041;-72
2022/08/04 10:34:51;;;;;;;4.63;1.77;;;;;;;25.25;85.33;101368.69;5070841;28;20031;-73
2022/08/04 10:37:27;;;;;;;2.50;1.02;;;;;;;25.25;81.01;101375.91;5064523;28;20531;-73
2022/08/04 10:43:11;;;;;;;4.43;1.20;;;;;;;25.53;82.93;101378.50;5068795;28;20058;-73
2022/08/04 10:45:45;;;;;;;4.20;1.35;;;;;;;25.77;78.91;101370.38;5060772;28;20055;-73
2022/08/04 10:48:40;;;;;;;3.30;1.20;;;;;;;25.80;77.83;101372.09;5072947;28;20056;-73
2022/08/04 10:51:17;;;;;;;4.05;1.20;;;;;;;25.69;77.42;101376.09;5063969;28;20024;-73
2022/08/04 10:53:44;;;;;;;5.60;1.25;;;;;;;25.51;83.05;101376.78;5080395;28;20039;-71
2022/08/04 10:56:23;;;;;;;3.22;1.15;;;;;;;25.66;80.75;101378.88;5077033;28;20089;-71
2022/08/04 10:58:53;;;;;;;4.65;1.38;;;;;;;25.81;79.41;101379.25;5094296;28;20054;-71
2022/08/04 11:01:24;;;;;;;3.03;1.20;;;;;;;25.95;78.39;101374.19;5077970;28;20031;-71
2022/08/04 11:04:02;;;;;;;4.15;1.25;;;;;;;26.11;76.81;101377.19;5069913;28;20025;-72
2022/08/04 11:06:28;;;;;;;2.97;1.10;;;;;;;26.34;78.73;101373.53;5075145;28;20024;-72
2022/08/04 11:08:55;;;;;;;4.03;0.98;;;;;;;26.55;72.61;101371.78;5069528;28;20107;-72
2022/08/04 11:11:36;;;;;;;2.33;1.00;;;;;;;26.83;74.96;101370.66;5061184;28;20028;-73
2022/08/04 11:14:11;;;;;;;1.75;1.05;;;;;;;27.11;72.95;101366.72;5075873;28;20471;-73
2022/08/04 11:16:59;;;;;;;4.25;0.95;;;;;;;27.48;75.05;101367.75;5061849;28;20701;-72
2022/08/04 11:19:50;;;;;;;3.42;0.82;;;;;;;27.80;71.04;101359.97;5067590;28;20102;-72
2022/08/04 11:22:25;;;;;;;3.22;1.15;;;;;;;28.20;68.76;101371.63;5061553;28;20020;-71
2022/08/04 11:25:18;;;;;;;6.65;2.33;;;;;;;28.34;65.58;101367.31;5075871;28;20494;-72
2022/08/04 11:27:58;;;;;;;3.75;1.35;;;;;;;28.66;67.23;101371.13;5069516;28;20035;-73
2022/08/04 11:30:34;;;;;;;2.20;1.13;;;;;;;28.86;63.59;101375.53;5068459;28;20032;-73
2022/08/04 11:33:24;;;;;;;3.05;1.00;;;;;;;29.06;65.38;101385.31;5084331;28;20074;-71
2022/08/04 11:36:43;;;;;;;3.63;1.30;;;;;;;29.52;66.00;101376.59;5087948;28;20472;-72
2022/08/04 11:39:24;;;;;;;4.90;1.15;;;;;;;29.81;61.33;101378.66;5055017;28;20491;-72
2022/08/04 11:42:04;;;;;;;5.65;1.23;;;;;;;30.07;61.27;101379.91;5079864;28;20514;-72
2022/08/04 11:44:33;;;;;;;4.30;1.08;;;;;;;30.13;59.24;101373.25;5067874;28;20531;-71
2022/08/04 11:47:07;;;;;;;2.05;0.95;;;;;;;30.39;58.31;101375.31;5080353;28;20024;-72
2022/08/04 11:49:51;;;;;;;4.15;1.40;;;;;;;30.67;57.56;101372.84;5073488;28;20021;-72
2022/08/04 11:52:19;;;;;;;4.03;1.20;;;;;;;30.68;54.95;101382.75;5068725;28;20025;-72
2022/08/04 11:54:45;;;;;;;2.80;1.10;;;;;;;30.75;54.16;101385.00;5066212;28;20044;-73
2022/08/04 11:57:11;;;;;;;2.63;1.02;;;;;;;30.86;55.61;101392.50;5076083;28;20051;-72
2022/08/04 11:59:39;;;;;;;4.68;1.20;;;;;;;30.81;53.93;101383.75;5063798;28;20488;-73
2022/08/04 12:02:43;;;;;;;5.97;0.95;;;;;;;30.94;54.66;101386.59;5072092;28;20836;-72